Time;durP1;ratioP1;P1;durP2;ratioP2;P2;SDS_P1;SDS_P2;PMS_P1;PMS_P2;Temp;Humidity;BMP_temperature;BMP_pressure;BME280_temperature;BME280_humidity;BME280_pressure;Samples;Min_cycle;Max_cycle;Signal;HPM_P1;HPM_P2
2021/10/25 00:00:15;;;;;;;28.77;13.85;;;;;;;0.82;69.23;98466.63;1687985;84;26578;-84
2021/10/25 00:02:43;;;;;;;26.20;12.60;;;;;;;0.82;69.17;98465.30;1687723;82;25695;-84
2021/10/25 00:05:10;;;;;;;20.08;10.50;;;;;;;0.82;69.18;98469.29;1688006;84;26259;-84
2021/10/25 00:07:36;;;;;;;21.73;10.32;;;;;;;0.82;69.16;98471.95;1687858;84;27351;-84
2021/10/25 00:10:05;;;;;;;22.60;11.22;;;;;;;0.72;69.12;98466.51;1687849;84;25663;-84
2021/10/25 00:12:32;;;;;;;150.68;43.78;;;;;;;0.68;69.27;98458.45;1687913;84;25759;-85
2021/10/25 00:15:00;;;;;;;140.22;37.98;;;;;;;0.68;69.28;98454.45;1687904;84;26238;-84
2021/10/25 00:17:26;;;;;;;81.22;23.83;;;;;;;0.70;69.30;98452.53;1690808;83;25301;-84
2021/10/25 00:19:53;;;;;;;93.00;27.30;;;;;;;0.71;69.34;98450.23;1693147;83;27643;-84
2021/10/25 00:22:20;;;;;;;43.63;16.15;;;;;;;0.74;69.34;98451.77;1693090;83;25753;-84
2021/10/25 00:24:46;;;;;;;22.22;11.45;;;;;;;0.73;69.43;98448.75;1693175;83;25722;-84
2021/10/25 00:27:13;;;;;;;23.55;11.85;;;;;;;0.63;69.40;98446.48;1693219;83;26182;-84
2021/10/25 00:29:39;;;;;;;30.27;13.28;;;;;;;0.60;69.56;98445.42;1693110;83;25681;-84
2021/10/25 00:32:06;;;;;;;32.80;13.62;;;;;;;0.61;69.65;98447.93;1693093;83;27534;-85
2021/10/25 00:34:33;;;;;;;58.30;19.30;;;;;;;0.61;69.57;98453.25;1692814;83;25669;-84
2021/10/25 00:37:02;;;;;;;65.03;23.90;;;;;;;0.64;69.53;98453.48;1693091;83;25289;-84
2021/10/25 00:39:30;;;;;;;53.92;20.10;;;;;;;0.61;69.44;98449.75;1693183;83;26059;-84
2021/10/25 00:41:56;;;;;;;29.15;12.75;;;;;;;0.60;69.47;98446.27;1693128;83;25836;-84
2021/10/25 00:44:24;;;;;;;25.08;11.65;;;;;;;0.62;69.50;98448.78;1693164;83;27399;-84
2021/10/25 00:46:51;;;;;;;25.85;11.45;;;;;;;0.64;69.59;98452.16;1693008;83;25692;-84
2021/10/25 00:49:17;;;;;;;19.12;10.50;;;;;;;0.61;69.59;98450.59;1693235;83;25795;-84
2021/10/25 00:51:45;;;;;;;25.92;11.60;;;;;;;0.55;69.67;98442.28;1699523;83;26063;-84
2021/10/25 00:54:11;;;;;;;28.83;11.97;;;;;;;0.52;69.65;98442.52;1699033;83;25660;-84
2021/10/25 00:56:42;;;;;;;40.30;16.57;;;;;;;0.52;69.75;98438.53;1693070;83;27427;-84
2021/10/25 00:59:10;;;;;;;26.02;12.23;;;;;;;0.51;69.71;98438.17;1693006;83;25816;-84
2021/10/25 01:01:37;;;;;;;22.87;11.12;;;;;;;0.47;69.77;98434.09;1693089;83;25711;-84
2021/10/25 01:04:05;;;;;;;17.40;9.15;;;;;;;0.45;69.84;98437.36;1693093;83;26133;-84
2021/10/25 01:06:32;;;;;;;18.05;9.73;;;;;;;0.41;69.93;98435.42;1693120;84;25928;-84
2021/10/25 01:08:59;;;;;;;15.20;7.90;;;;;;;0.35;69.99;98434.11;1693215;83;27570;-84
2021/10/25 01:11:26;;;;;;;18.23;8.88;;;;;;;0.36;70.15;98430.98;1693014;83;25885;-84
2021/10/25 01:13:54;;;;;;;21.80;9.75;;;;;;;0.36;70.13;98435.77;1692569;83;25268;-84
2021/10/25 01:16:21;;;;;;;23.92;11.75;;;;;;;0.40;70.16;98430.22;1691639;83;26029;-84
2021/10/25 01:18:49;;;;;;;28.95;13.03;;;;;;;0.40;70.16;98428.41;1686297;84;26282;-84
2021/10/25 01:21:16;;;;;;;23.35;11.43;;;;;;;0.43;70.13;98429.98;1686359;84;26980;-84
2021/10/25 01:23:42;;;;;;;22.00;10.18;;;;;;;0.42;70.11;98426.97;1686329;84;25790;-84
2021/10/25 01:26:09;;;;;;;23.12;9.65;;;;;;;0.41;70.08;98422.14;1686379;84;25703;-84
2021/10/25 01:28:37;;;;;;;19.37;9.08;;;;;;;0.41;70.10;98425.28;1686362;85;25976;-84
2021/10/25 01:31:04;;;;;;;15.80;7.45;;;;;;;0.40;70.15;98420.92;1686426;84;25761;-84
2021/10/25 01:33:32;;;;;;;15.58;8.53;;;;;;;0.40;70.16;98416.95;1686191;84;27395;-84
2021/10/25 01:35:59;;;;;;;18.23;8.90;;;;;;;0.41;70.18;98409.34;1686242;84;25740;-84
2021/10/25 01:38:25;;;;;;;29.45;8.35;;;;;;;0.42;70.16;98410.55;1686363;84;25816;-84
2021/10/25 01:40:52;;;;;;;17.40;8.10;;;;;;;0.40;70.17;98402.33;1691406;83;26827;-85
2021/10/25 01:43:18;;;;;;;13.50;6.70;;;;;;;0.38;70.20;98405.59;1692196;83;25831;-84
2021/10/25 01:45:46;;;;;;;12.82;6.72;;;;;;;0.33;70.29;98402.84;1686456;84;27416;-84
2021/10/25 01:48:13;;;;;;;12.40;6.97;;;;;;;0.29;70.37;98405.38;1686159;84;25756;-85
2021/10/25 01:50:39;;;;;;;14.43;7.75;;;;;;;0.31;70.53;98399.46;1698876;82;25740;-85
2021/10/25 01:53:06;;;;;;;13.93;7.12;;;;;;;0.35;70.53;98400.91;1686462;84;26156;-84
2021/10/25 01:55:33;;;;;;;12.20;6.83;;;;;;;0.35;70.45;98402.25;1660874;85;25791;-84
2021/10/25 01:58:00;;;;;;;20.32;8.48;;;;;;;0.34;70.49;98393.91;1686789;83;27385;-85
2021/10/25 02:00:26;;;;;;;17.25;9.03;;;;;;;0.36;70.50;98391.95;1678967;84;25749;-84
2021/10/25 02:02:53;;;;;;;15.85;6.95;;;;;;;0.35;70.51;98396.93;1686402;84;25683;-84
2021/10/25 02:05:20;;;;;;;16.32;6.97;;;;;;;0.30;70.70;98387.15;1686441;84;25973;-84
2021/10/25 02:07:46;;;;;;;13.70;6.65;;;;;;;0.27;70.68;98390.04;1686387;84;25855;-84
2021/10/25 02:10:13;;;;;;;12.15;6.92;;;;;;;0.28;70.73;98381.11;1686250;84;28222;-84
2021/10/25 02:12:40;;;;;;;11.15;6.17;;;;;;;0.32;70.78;98386.55;1686372;84;26057;-84
2021/10/25 02:15:09;;;;;;;14.07;6.50;;;;;;;0.30;70.84;98389.80;1686417;84;26527;-84
2021/10/25 02:17:35;;;;;;;9.65;5.95;;;;;;;0.25;70.90;98388.47;1700060;82;26037;-84
2021/10/25 02:20:03;;;;;;;12.82;6.47;;;;;;;0.18;70.90;98383.30;1696496;83;25885;-84
2021/10/25 02:22:30;;;;;;;16.20;8.30;;;;;;;0.20;70.98;98386.20;1696398;83;27579;-84
2021/10/25 02:24:57;;;;;;;15.10;8.45;;;;;;;0.22;70.89;98378.97;1708982;81;25755;-84
2021/10/25 02:27:24;;;;;;;14.98;7.97;;;;;;;0.24;70.89;98378.84;1699987;81;25788;-84
2021/10/25 02:29:51;;;;;;;13.18;7.50;;;;;;;0.23;70.86;98378.48;1716750;82;26161;-85
2021/10/25 02:32:18;;;;;;;24.23;10.25;;;;;;;0.25;70.85;98377.36;1702531;83;25706;-84
2021/10/25 02:34:45;;;;;;;18.48;8.18;;;;;;;0.27;70.87;98374.59;1696800;83;27446;-84
2021/10/25 02:37:14;;;;;;;17.12;7.30;;;;;;;0.26;70.90;98376.41;1696675;83;25751;-84
2021/10/25 02:39:41;;;;;;;16.62;7.28;;;;;;;0.26;70.89;98381.71;1696856;83;25687;-84
2021/10/25 02:42:08;;;;;;;12.75;7.58;;;;;;;0.28;70.93;98378.94;1696534;83;26061;-84
2021/10/25 02:44:34;;;;;;;15.03;7.05;;;;;;;0.28;70.91;98377.13;1696798;83;25771;-84
2021/10/25 02:47:01;;;;;;;16.20;6.70;;;;;;;0.26;70.98;98379.05;1696803;83;27491;-83
2021/10/25 02:49:28;;;;;;;14.10;6.40;;;;;;;0.17;70.96;98371.84;1696597;83;25724;-84
2021/10/25 02:51:55;;;;;;;12.45;6.95;;;;;;;0.16;71.11;98375.45;1696777;84;25676;-84
2021/10/25 02:54:24;;;;;;;14.23;7.28;;;;;;;0.19;71.25;98369.06;1696860;83;26477;-84
2021/10/25 02:56:51;;;;;;;12.80;6.42;;;;;;;0.14;71.14;98366.77;1696647;82;25730;-85
2021/10/25 02:59:18;;;;;;;11.70;6.50;;;;;;;0.16;71.18;98375.45;1696768;83;27437;-84
2021/10/25 03:01:46;;;;;;;15.98;6.45;;;;;;;0.18;71.20;98370.87;1696651;84;26038;-84
2021/10/25 03:04:13;;;;;;;16.55;6.40;;;;;;;0.18;71.12;98369.55;1696779;83;25323;-84
2021/10/25 03:06:39;;;;;;;15.80;7.97;;;;;;;0.21;71.17;98371.96;1696784;83;26145;-84
2021/10/25 03:09:08;;;;;;;15.03;7.60;;;;;;;0.19;71.14;98372.56;1696827;83;25731;-84
2021/10/25 03:11:34;;;;;;;16.40;7.45;;;;;;;0.21;71.10;98367.98;1696762;84;27341;-84
2021/10/25 03:14:01;;;;;;;19.20;7.22;;;;;;;0.23;71.06;98377.16;1696728;83;25769;-84
2021/10/25 03:16:28;;;;;;;11.40;6.08;;;;;;;0.19;71.06;98379.20;1696756;83;26348;-84
2021/10/25 03:18:55;;;;;;;11.63;5.55;;;;;;;0.14;71.16;98364.11;1692652;83;26588;-84
2021/10/25 03:21:23;;;;;;;14.00;6.05;;;;;;;0.14;71.27;98368.09;1691519;83;25736;-84
2021/10/25 03:23:51;;;;;;;9.55;5.70;;;;;;;0.13;71.31;98362.90;1691541;83;28351;-84
2021/10/25 03:26:18;;;;;;;9.65;5.22;;;;;;;0.14;71.33;98360.13;1691455;83;25741;-84
2021/10/25 03:28:46;;;;;;;9.93;5.80;;;;;;;0.13;71.31;98362.42;1691687;83;25349;-84
2021/10/25 03:31:12;;;;;;;11.18;5.40;;;;;;;0.10;71.32;98357.38;1685233;83;26636;-84
2021/10/25 03:33:40;;;;;;;13.65;6.12;;;;;;;0.12;71.39;98360.73;1698268;83;25760;-84
2021/10/25 03:36:07;;;;;;;16.23;6.97;;;;;;;0.15;71.32;98355.18;1698234;83;27540;-84
2021/10/25 03:38:38;;;;;;;15.18;8.03;;;;;;;0.16;71.28;98354.22;1697718;83;25862;-84
2021/10/25 03:41:07;;;;;;;14.13;7.60;;;;;;;0.15;71.28;98349.88;1698112;83;25938;-84
2021/10/25 03:43:36;;;;;;;16.82;6.90;;;;;;;0.12;71.30;98342.14;1698383;82;26624;-83
2021/10/25 03:46:14;;;;;;;13.30;6.58;;;;;;;0.04;71.44;98335.29;1698363;82;25768;-84
2021/10/25 03:48:43;;;;;;;12.45;6.12;;;;;;;0.00;71.53;98337.85;1699732;82;27410;-84
2021/10/25 03:51:09;;;;;;;15.32;7.05;;;;;;;0.00;71.63;98332.55;1698774;82;25783;-85
2021/10/25 03:53:45;;;;;;;10.80;7.17;;;;;;;0.00;71.73;98334.69;1698198;83;25818;-83
2021/10/25 03:56:10;;;;;;;19.75;8.13;;;;;;;0.02;71.79;98333.23;1699434;82;26005;-84
2021/10/25 04:28:12;;;;;;;23.47;10.65;;;;;;;0.00;71.78;98296.19;1713326;82;27411;-84
2021/10/25 04:30:39;;;;;;;20.48;9.88;;;;;;;0.02;71.71;98298.73;1694410;83;25720;-84
2021/10/25 04:33:06;;;;;;;30.00;10.00;;;;;;;-0.02;71.73;98294.66;1696862;83;25746;-83
2021/10/25 04:35:34;;;;;;;28.07;13.08;;;;;;;-0.02;71.79;98291.52;1696599;83;26034;-84
2021/10/25 04:38:01;;;;;;;28.12;12.63;;;;;;;-0.03;71.73;98294.30;1696863;83;25913;-83
2021/10/25 04:40:27;;;;;;;30.80;12.25;;;;;;;-0.04;71.78;98289.95;1696931;83;27470;-83
2021/10/25 04:42:56;;;;;;;32.50;14.10;;;;;;;-0.05;71.79;98292.23;1696847;83;25970;-83
2021/10/25 04:45:22;;;;;;;30.00;12.58;;;;;;;-0.04;71.81;98291.27;1696905;83;25707;-83
2021/10/25 04:47:52;;;;;;;20.20;10.53;;;;;;;-0.03;71.82;98292.97;1696791;83;26747;-83
2021/10/25 04:50:17;;;;;;;21.12;10.15;;;;;;;-0.04;71.83;98291.27;1697054;83;25794;-83
2021/10/25 04:52:44;;;;;;;22.67;10.45;;;;;;;-0.03;71.84;98299.13;1696764;83;28128;-83
2021/10/25 04:55:10;;;;;;;21.50;10.58;;;;;;;-0.02;71.86;98290.67;1696750;83;25822;-83
2021/10/25 04:57:37;;;;;;;32.05;10.50;;;;;;;-0.04;71.85;98291.27;1696681;83;25811;-82
2021/10/25 05:00:06;;;;;;;19.73;9.70;;;;;;;-0.03;71.88;98283.19;1696922;83;26107;-80
2021/10/25 05:02:33;;;;;;;22.58;8.85;;;;;;;-0.07;71.91;98287.05;1696946;83;25722;-83
2021/10/25 05:05:00;;;;;;;17.77;8.38;;;;;;;-0.06;71.95;98285.24;1696775;83;27598;-83
2021/10/25 05:07:26;;;;;;;18.37;8.35;;;;;;;-0.07;71.97;98286.20;1696753;84;25778;-83
2021/10/25 05:09:53;;;;;;;16.65;9.15;;;;;;;-0.06;71.95;98277.28;1696971;83;26559;-83
2021/10/25 05:12:19;;;;;;;20.95;8.78;;;;;;;-0.06;71.94;98280.78;1696136;83;26751;-83
2021/10/25 05:14:46;;;;;;;17.80;9.65;;;;;;;-0.06;71.91;98278.13;1692348;83;25707;-83
2021/10/25 05:17:13;;;;;;;19.15;9.55;;;;;;;-0.05;71.87;98285.61;1692228;83;28317;-83
2021/10/25 05:19:40;;;;;;;21.95;9.70;;;;;;;-0.05;71.86;98277.64;1692049;83;25711;-84
2021/10/25 05:22:07;;;;;;;18.12;10.10;;;;;;;-0.06;71.86;98276.80;1692860;84;25721;-83
2021/10/25 05:24:34;;;;;;;21.40;11.48;;;;;;;-0.07;71.90;98284.39;1696870;83;26028;-83
2021/10/25 05:27:00;;;;;;;25.70;13.05;;;;;;;-0.13;71.83;98284.06;1696870;83;25732;-83
2021/10/25 05:29:27;;;;;;;26.02;12.15;;;;;;;-0.13;71.95;98278.75;1696922;84;27350;-83
2021/10/25 05:31:53;;;;;;;24.37;13.05;;;;;;;-0.17;72.03;98287.91;1696783;83;26239;-83
2021/10/25 05:34:20;;;;;;;25.88;14.98;;;;;;;-0.17;72.08;98290.57;1696879;84;25805;-83
2021/10/25 05:36:47;;;;;;;26.60;15.53;;;;;;;-0.16;72.11;98281.65;1696892;83;26134;-82
2021/10/25 05:39:13;;;;;;;42.45;21.80;;;;;;;-0.19;72.17;98285.86;1696838;83;25763;-83
2021/10/25 05:41:40;;;;;;;35.63;20.95;;;;;;;-0.19;72.24;98284.54;1696847;84;27367;-83
2021/10/25 05:44:07;;;;;;;42.78;22.60;;;;;;;-0.19;72.21;98280.56;1696816;83;25732;-83
2021/10/25 05:46:34;;;;;;;42.30;21.50;;;;;;;-0.15;72.23;98281.53;1696800;83;25713;-83
2021/10/25 05:49:01;;;;;;;37.70;20.57;;;;;;;-0.18;72.26;98283.09;1696842;84;26003;-83
2021/10/25 05:51:28;;;;;;;42.25;19.85;;;;;;;-0.23;72.28;98288.39;1696968;83;25890;-83
2021/10/25 05:53:55;;;;;;;36.70;17.30;;;;;;;-0.22;72.34;98287.43;1696908;83;27361;-83
2021/10/25 05:56:21;;;;;;;32.03;16.45;;;;;;;-0.21;72.47;98289.12;1696699;83;25756;-83
2021/10/25 05:58:49;;;;;;;33.80;15.40;;;;;;;-0.20;72.41;98288.16;1696575;83;25780;-82
2021/10/25 06:01:17;;;;;;;33.75;16.17;;;;;;;-0.17;72.52;98285.27;1696885;83;26106;-83
2021/10/25 06:03:46;;;;;;;32.90;16.05;;;;;;;-0.17;72.56;98290.09;1696762;83;25632;-83
2021/10/25 06:06:12;;;;;;;34.00;15.88;;;;;;;-0.14;72.55;98298.30;1696904;83;27480;-83
2021/10/25 06:08:40;;;;;;;34.83;16.60;;;;;;;-0.10;72.59;98292.59;1696732;84;25764;-84
2021/10/25 06:11:08;;;;;;;28.55;17.07;;;;;;;-0.04;72.57;98290.80;1696798;83;25715;-84
2021/10/25 06:13:41;;;;;;;31.00;16.65;;;;;;;0.03;72.65;98289.80;1696200;84;25792;-84
2021/10/25 06:16:18;;;;;;;27.32;15.23;;;;;;;0.09;72.65;98281.35;1697102;83;25282;-83
2021/10/25 06:18:45;;;;;;;34.08;15.40;;;;;;;0.11;72.71;98275.44;1696148;82;28067;-85
2021/10/25 06:21:12;;;;;;;25.82;15.10;;;;;;;0.12;72.76;98270.46;1693835;84;25937;-84
2021/10/25 06:23:39;;;;;;;25.20;14.58;;;;;;;0.17;72.80;98280.23;1694186;84;25742;-84
2021/10/25 06:26:06;;;;;;;25.48;14.73;;;;;;;0.22;72.93;98278.55;1694309;83;26086;-84
2021/10/25 06:28:33;;;;;;;26.70;14.43;;;;;;;0.25;72.95;98276.45;1694455;84;25866;-84
2021/10/25 06:31:07;;;;;;;25.45;14.18;;;;;;;0.27;73.04;98274.52;1694228;84;27423;-84
2021/10/25 06:33:42;;;;;;;28.75;14.47;;;;;;;0.30;73.08;98274.28;1694205;83;25796;-85
2021/10/25 06:36:05;;;;;;;28.27;14.13;;;;;;;0.35;73.21;98277.41;1694883;83;25772;-85
2021/10/25 06:38:42;;;;;;;35.50;15.68;;;;;;;0.42;73.22;98279.55;1690145;84;27181;-85
2021/10/25 06:41:06;;;;;;;31.25;15.23;;;;;;;0.49;73.20;98273.59;1690290;83;25742;-84
2021/10/25 06:43:33;;;;;;;33.18;16.48;;;;;;;0.54;73.31;98281.19;1673132;84;27545;-85
2021/10/25 06:46:00;;;;;;;52.67;26.95;;;;;;;0.61;73.41;98282.35;1689907;84;26147;-84
2021/10/25 06:48:28;;;;;;;54.67;30.77;;;;;;;0.68;73.36;98284.39;1690059;84;25820;-87
2021/10/25 06:50:55;;;;;;;52.10;31.17;;;;;;;0.77;73.26;98284.09;1690060;84;26025;-84
2021/10/25 06:53:22;;;;;;;40.35;24.15;;;;;;;0.87;73.22;98280.17;1690119;84;25598;-86
2021/10/25 06:55:48;;;;;;;33.67;18.57;;;;;;;0.93;73.27;98277.01;1689978;84;28146;-88
2021/10/25 06:58:15;;;;;;;34.92;17.52;;;;;;;0.99;73.34;98277.31;1689688;84;25768;-87
2021/10/25 07:00:42;;;;;;;33.63;17.20;;;;;;;1.07;73.37;98275.35;1690045;84;25654;-84
2021/10/25 07:03:09;;;;;;;37.35;19.02;;;;;;;1.18;73.43;98281.08;1689945;84;26102;-86
2021/10/25 07:05:37;;;;;;;39.60;19.00;;;;;;;1.25;73.46;98270.26;1690096;84;25701;-84
2021/10/25 07:08:05;;;;;;;43.05;19.52;;;;;;;1.34;73.51;98261.48;1689952;84;28375;-82
2021/10/25 07:10:34;;;;;;;43.92;17.90;;;;;;;1.44;73.72;98266.38;1690007;84;25842;-83
2021/10/25 07:13:02;;;;;;;28.02;13.65;;;;;;;1.55;73.77;98266.77;1690035;84;25775;-83
2021/10/25 07:15:30;;;;;;;26.93;12.37;;;;;;;1.67;73.68;98265.21;1690124;84;26096;-83
2021/10/25 07:23:28;;;;;;;;;;;;;;;2.10;73.50;98254.23;1696870;83;25678;-82
2021/10/25 08:06:41;;;;;;;37.73;16.57;;;;;;;6.61;68.07;98212.75;1692249;83;26498;-83
2021/10/25 08:11:38;;;;;;;32.08;13.60;;;;;;;7.05;66.63;98203.84;1692396;83;26369;-85
2021/10/25 08:14:05;;;;;;;20.02;8.48;;;;;;;7.28;66.49;98205.30;1692960;83;27410;-83
2021/10/25 08:16:49;;;;;;;16.55;7.85;;;;;;;7.61;66.05;98207.92;1691986;83;25850;-83
2021/10/25 08:19:11;;;;;;;11.40;4.50;;;;;;;7.88;65.29;98207.45;1690980;83;26138;-82
2021/10/25 08:21:34;;;;;;;18.00;8.08;;;;;;;8.18;64.66;98200.43;1689556;84;26235;-83
2021/10/25 08:24:01;;;;;;;10.90;5.50;;;;;;;8.44;63.36;98202.83;1694007;83;25822;-82
2021/10/25 08:26:27;;;;;;;9.60;4.33;;;;;;;8.70;63.28;98187.64;1694440;84;28106;-83
2021/10/25 08:28:54;;;;;;;8.23;4.20;;;;;;;8.99;63.24;98187.23;1694401;83;25835;-81
2021/10/25 08:31:22;;;;;;;11.68;5.33;;;;;;;9.28;62.39;98188.31;1694386;83;25746;-81
2021/10/25 08:34:27;;;;;;;9.93;4.40;;;;;;;9.54;60.93;98193.27;1694134;83;27068;-83
2021/10/25 08:39:46;;;;;;;11.43;4.20;;;;;;;9.81;60.87;98188.53;1697934;83;25771;-83
2021/10/25 08:41:49;;;;;;;7.72;4.40;;;;;;;10.35;59.67;98184.98;1684522;84;25876;-85
2021/10/25 08:44:16;;;;;;;10.50;4.20;;;;;;;10.58;58.91;98181.27;1684192;84;25704;-83
2021/10/25 08:46:50;;;;;;;11.05;4.58;;;;;;;10.79;58.47;98179.91;1684410;84;26078;-83
2021/10/25 08:49:13;;;;;;;9.58;4.22;;;;;;;10.96;57.78;98183.18;1685014;83;25715;-83
2021/10/25 08:51:40;;;;;;;13.20;4.80;;;;;;;11.10;57.31;98184.45;1684345;84;28254;-83
2021/10/25 08:54:07;;;;;;;10.55;4.55;;;;;;;11.24;56.63;98175.06;1692787;82;25938;-83
2021/10/25 08:56:33;;;;;;;8.78;4.42;;;;;;;11.32;56.53;98172.23;1685605;84;25741;-85
2021/10/25 08:59:02;;;;;;;7.60;4.05;;;;;;;11.48;56.20;98178.16;1684027;84;26127;-84
2021/10/25 09:01:34;;;;;;;7.62;4.08;;;;;;;11.60;55.45;98173.02;1684354;84;25707;-82
2021/10/25 09:04:07;;;;;;;9.23;4.12;;;;;;;11.72;54.94;98170.07;1684473;84;28453;-83
2021/10/25 09:06:36;;;;;;;9.05;4.22;;;;;;;11.83;54.35;98172.24;1684295;84;25266;-83
2021/10/25 09:09:08;;;;;;;9.30;4.47;;;;;;;11.99;54.01;98171.07;1684569;84;25787;-84
2021/10/25 09:11:35;;;;;;;6.30;4.05;;;;;;;12.07;53.69;98162.80;1684442;85;26873;-83
2021/10/25 09:14:01;;;;;;;10.85;4.12;;;;;;;12.14;52.82;98157.40;1684456;85;25780;-82
2021/10/25 09:16:28;;;;;;;10.53;4.80;;;;;;;12.12;51.85;98153.54;1684222;85;27368;-83
2021/10/25 09:18:55;;;;;;;7.95;3.98;;;;;;;12.26;51.81;98155.77;1684327;84;25850;-83
2021/10/25 09:21:25;;;;;;;10.15;4.05;;;;;;;12.43;51.55;98154.38;1690121;83;25756;-83
2021/10/25 09:23:52;;;;;;;9.88;4.20;;;;;;;12.50;51.44;98157.92;1691561;83;26405;-82
2021/10/25 09:26:24;;;;;;;6.58;3.67;;;;;;;12.56;50.45;98147.60;1691387;84;25848;-83
2021/10/25 09:28:55;;;;;;;9.23;3.45;;;;;;;12.65;50.33;98151.48;1691673;83;27444;-84
2021/10/25 09:31:27;;;;;;;6.80;3.58;;;;;;;12.74;49.85;98142.95;1691630;83;25727;-83
2021/10/25 09:34:00;;;;;;;6.58;4.03;;;;;;;12.89;49.28;98149.53;1691933;83;25305;-83
2021/10/25 09:36:36;;;;;;;7.20;3.50;;;;;;;12.97;49.17;98145.25;1663778;84;25815;-82
2021/10/25 09:39:15;;;;;;;6.40;3.50;;;;;;;13.11;49.03;98138.78;1673761;84;25761;-85
2021/10/25 09:49:59;;;;;;;6.35;3.00;;;;;;;13.53;47.47;98128.52;1691484;84;26443;-82
2021/10/25 09:52:36;;;;;;;5.55;3.55;;;;;;;13.64;46.97;98123.81;1691593;83;26477;-83
2021/10/25 09:55:14;;;;;;;7.80;3.90;;;;;;;13.74;46.61;98125.55;1690698;83;27921;-83
2021/10/25 10:00:15;;;;;;;7.83;3.85;;;;;;;13.89;46.37;98122.55;1686731;83;26854;-84
2021/10/25 10:02:44;;;;;;;8.38;4.08;;;;;;;14.05;46.21;98120.19;1687151;83;26055;-83
2021/10/25 10:05:12;;;;;;;6.35;4.28;;;;;;;14.18;46.07;98119.81;1687049;83;25775;-83
2021/10/25 10:07:40;;;;;;;8.25;3.72;;;;;;;14.20;45.51;98116.37;1687059;83;27626;-82
2021/10/25 10:10:14;;;;;;;7.78;4.37;;;;;;;14.22;45.16;98114.27;1687007;83;25765;-83
2021/10/25 10:12:42;;;;;;;8.08;4.35;;;;;;;14.27;44.83;98110.36;1685919;83;25824;-83
2021/10/25 10:15:12;;;;;;;9.53;4.92;;;;;;;14.37;44.89;98101.20;1687287;83;26524;-85
2021/10/25 10:18:11;;;;;;;17.30;5.00;;;;;;;14.43;44.93;98092.23;1687025;83;25772;-87
2021/10/25 10:20:41;;;;;;;10.63;3.83;;;;;;;14.45;44.58;98099.64;1682601;83;27564;-82
2021/10/25 10:23:13;;;;;;;9.50;4.53;;;;;;;14.50;44.49;98094.37;1681281;84;25861;-84
2021/10/25 10:25:57;;;;;;;11.08;4.28;;;;;;;14.52;44.29;98099.58;1684176;84;26288;-84
2021/10/25 10:28:47;;;;;;;7.92;4.45;;;;;;;14.57;44.22;98089.73;1684200;84;26382;-85
2021/10/25 10:31:26;;;;;;;9.93;4.15;;;;;;;14.64;43.82;98091.87;1667978;85;25755;-85
2021/10/25 10:33:58;;;;;;;6.33;3.67;;;;;;;14.68;43.48;98090.38;1684311;84;27393;-85
2021/10/25 10:36:31;;;;;;;10.13;4.47;;;;;;;14.81;43.20;98083.18;1684366;83;25286;-85
2021/10/25 10:39:08;;;;;;;7.80;4.42;;;;;;;14.92;42.86;98081.09;1684304;85;25809;-86
2021/10/25 10:41:52;;;;;;;9.05;3.60;;;;;;;15.16;42.96;98078.88;1684300;84;26881;-85
2021/10/25 10:44:22;;;;;;;6.70;3.67;;;;;;;15.33;42.26;98073.70;1684442;84;25501;-85
2021/10/25 10:46:55;;;;;;;9.08;4.45;;;;;;;15.53;42.26;98069.39;1684415;84;27435;-85
2021/10/25 10:49:45;;;;;;;5.83;3.85;;;;;;;15.73;41.75;98070.84;1684325;84;25802;-86
2021/10/25 10:55:00;;;;;;;6.08;3.83;;;;;;;16.32;40.96;98065.13;1684301;84;25842;-85
2021/10/25 11:00:40;;;;;;;5.42;3.50;;;;;;;16.84;40.49;98055.86;1684237;84;27438;-87
2021/10/25 11:03:23;;;;;;;5.83;3.05;;;;;;;16.99;39.41;98058.96;1684105;84;25707;-85
2021/10/25 11:06:09;;;;;;;6.65;3.12;;;;;;;17.23;38.99;98044.79;1684341;85;25747;-84
2021/10/25 11:08:43;;;;;;;5.78;3.33;;;;;;;17.47;39.22;98043.69;1684321;83;26000;-86
2021/10/25 11:11:14;;;;;;;5.42;2.98;;;;;;;17.49;37.91;98044.29;1684408;84;25769;-87
2021/10/25 11:13:48;;;;;;;6.40;3.22;;;;;;;17.47;37.74;98040.13;1684299;84;27468;-85
2021/10/25 11:19:04;;;;;;;6.22;3.30;;;;;;;17.63;37.20;98036.67;1684300;84;25846;-85
2021/10/25 11:21:37;;;;;;;7.30;3.22;;;;;;;17.76;36.74;98031.47;1684112;82;26034;-85
2021/10/25 11:24:15;;;;;;;5.78;3.02;;;;;;;17.98;37.39;98024.30;1684158;84;25724;-86
2021/10/25 11:26:54;;;;;;;5.70;3.12;;;;;;;18.34;36.96;98025.26;1684106;84;27435;-87
2021/10/25 11:29:26;;;;;;;7.22;2.62;;;;;;;18.49;36.52;98022.47;1665785;84;25729;-87
2021/10/25 11:32:06;;;;;;;8.70;3.42;;;;;;;18.58;36.25;98018.31;1684414;84;25740;-85
2021/10/25 11:34:45;;;;;;;4.35;3.00;;;;;;;18.50;35.51;98015.39;1685345;84;25993;-86
2021/10/25 11:37:18;;;;;;;5.72;3.30;;;;;;;18.60;35.63;98001.09;1684517;83;25839;-85
2021/10/25 11:40:05;;;;;;;4.05;2.87;;;;;;;18.73;35.43;98002.14;1684401;85;27667;-85
2021/10/25 11:42:33;;;;;;;4.53;2.90;;;;;;;18.91;35.26;97999.69;1683954;83;26298;-87
2021/10/25 11:45:07;;;;;;;6.62;3.35;;;;;;;19.01;34.73;97994.38;1677766;85;25682;-86
2021/10/25 11:47:38;;;;;;;5.45;3.00;;;;;;;19.06;34.55;97986.25;1664412;84;25769;-87
2021/10/25 11:50:15;;;;;;;4.72;2.67;;;;;;;19.06;34.52;97992.55;1677856;84;25757;-86
2021/10/25 11:52:50;;;;;;;4.50;2.98;;;;;;;19.16;34.74;97995.14;1677886;84;27492;-88
2021/10/25 11:55:21;;;;;;;5.42;3.22;;;;;;;19.27;34.53;97987.36;1677637;85;25764;-88
2021/10/25 11:57:53;;;;;;;4.60;3.08;;;;;;;19.36;34.19;97981.72;1678055;84;26499;-85
2021/10/25 12:00:22;;;;;;;8.33;3.15;;;;;;;19.47;33.75;97982.14;1677577;84;26051;-85
2021/10/25 12:02:49;;;;;;;3.92;2.85;;;;;;;19.53;33.84;97979.80;1678018;84;25473;-86
2021/10/25 12:05:24;;;;;;;4.67;3.17;;;;;;;19.59;33.64;97976.03;1677861;84;28063;-87
2021/10/25 12:07:53;;;;;;;6.92;3.15;;;;;;;19.56;33.39;97973.80;1677740;85;25916;-87
2021/10/25 12:10:24;;;;;;;5.42;2.90;;;;;;;19.46;33.07;97974.18;1677821;84;25800;-88
2021/10/25 12:12:59;;;;;;;4.83;3.33;;;;;;;19.56;33.08;97975.16;1677811;84;26979;-87
2021/10/25 12:15:29;;;;;;;5.75;3.17;;;;;;;19.57;32.54;97971.34;1664861;84;25777;-87
2021/10/25 12:18:02;;;;;;;5.25;3.30;;;;;;;19.69;32.91;97977.52;1677777;85;27333;-86
2021/10/25 12:20:35;;;;;;;9.60;3.40;;;;;;;19.72;32.58;97967.42;1651731;84;44483;-86
2021/10/25 12:23:15;;;;;;;4.37;2.93;;;;;;;19.83;32.60;97963.42;1681150;84;25795;-86
2021/10/25 12:25:43;;;;;;;4.37;2.98;;;;;;;19.93;32.54;97950.66;1684427;84;25988;-87
2021/10/25 12:28:17;;;;;;;5.97;3.33;;;;;;;19.97;32.21;97949.61;1684029;84;25759;-84
2021/10/25 12:30:46;;;;;;;4.47;2.75;;;;;;;19.95;31.90;97946.30;1659525;85;27384;-87
2021/10/25 12:33:17;;;;;;;5.50;2.65;;;;;;;20.01;32.05;97949.39;1684318;83;25803;-87
2021/10/25 12:35:47;;;;;;;6.08;2.90;;;;;;;20.22;32.07;97955.89;1684005;84;25668;-86
2021/10/25 12:38:17;;;;;;;5.85;3.10;;;;;;;20.42;32.13;97943.76;1684370;84;26047;-86
2021/10/25 12:41:01;;;;;;;4.50;2.75;;;;;;;20.42;31.66;97943.22;1684356;84;25789;-86
2021/10/25 12:43:40;;;;;;;7.05;3.50;;;;;;;20.40;31.33;97935.82;1684331;84;28070;-85
2021/10/25 12:46:10;;;;;;;6.50;3.20;;;;;;;20.39;31.37;97932.80;1679554;84;25828;-87
2021/10/25 12:48:47;;;;;;;4.85;3.12;;;;;;;20.43;31.28;97930.33;1677866;84;25792;-87
2021/10/25 12:51:16;;;;;;;6.05;3.25;;;;;;;20.36;30.54;97934.68;1673587;85;26779;-85
2021/10/25 12:53:50;;;;;;;5.83;3.50;;;;;;;20.35;30.97;97928.91;1677744;84;25711;-87
2021/10/25 12:56:27;;;;;;;6.87;3.98;;;;;;;20.54;30.85;97928.49;1677634;84;28296;-85
2021/10/25 12:59:10;;;;;;;7.53;3.87;;;;;;;20.73;32.01;97930.58;1677664;84;25741;-86
2021/10/25 13:01:36;;;;;;;7.05;4.10;;;;;;;20.99;31.89;97927.45;1610077;88;26034;-87
2021/10/25 13:04:05;;;;;;;7.45;3.47;;;;;;;20.98;31.21;97931.84;1621510;87;25824;-86
2021/10/25 13:06:34;;;;;;;6.80;3.70;;;;;;;21.02;31.49;97922.78;1621397;87;25885;-86
2021/10/25 13:09:10;;;;;;;6.85;3.80;;;;;;;21.16;31.79;97923.97;1621603;87;28210;-86
2021/10/25 13:11:38;;;;;;;8.25;4.00;;;;;;;21.27;31.25;97918.55;1609131;88;25816;-87
2021/10/25 13:14:08;;;;;;;8.10;3.58;;;;;;;21.31;31.08;97919.68;1621779;88;25911;-84
2021/10/25 13:16:46;;;;;;;6.50;3.62;;;;;;;21.22;30.98;97922.13;1621674;87;26003;-86
2021/10/25 13:19:17;;;;;;;9.33;3.47;;;;;;;21.18;30.85;97920.45;1621528;87;25825;-88